Home   Weather   USA   Winder   Past weeks
Flag for USA

Past Weather in Winder, Georgia, USA — Yesterday and Last 2 Weeks

Currently: 59 °F. Passing clouds. (Weather station: Winder-Barrow Airport, USA). See more current weather

Past Weather in Winder — Graph

°F

Winder Temperature Yesterday

Maximum temperature yesterday: 70 °F (at 2:35 pm)
Minimum temperature yesterday: 50 °F (at 5:55 am)
Average temperature yesterday: 60 °F

High & Low Weather Summary for the Past Weeks

  Temperature Humidity Pressure
High 82 °F (Apr 29, 3:55 pm) 100% (Apr 26, 12:55 am) 30.32 "Hg (Apr 26, 12:55 am)
Low 43 °F (May 4, 6:35 am) 27% (May 3, 6:35 pm) 29.82 "Hg (Apr 25, 7:15 pm)
Average 63 °F 69% 29.98 "Hg
* Reported Apr 24 10:35 am — May 8 11:35 pm, Winder. Weather by CustomWeather, © 2026

Note: Actual official high and low records may vary slightly from our data, if they occured in-between our weather recording intervals... More about our weather records

Winder Weather History for the Previous 24 Hours

Scroll right to see more
  Conditions Comfort    
Time   Temp Weather Wind   Humidity Barometer Visibility
11:35 pm
Fri, May 8
59 °F Passing clouds. N/A 88% 29.99 "Hg 10 mi
11:15 pm 59 °F Clear. N/A 88% 29.99 "Hg 10 mi
10:55 pm 61 °F Clear. N/A 83% 30.00 "Hg 10 mi
10:35 pm 61 °F Clear. N/A 83% 30.00 "Hg 10 mi
10:15 pm 61 °F Clear. N/A 77% 29.99 "Hg 10 mi
9:55 pm 61 °F Clear. N/A 77% 29.99 "Hg 10 mi
9:35 pm 61 °F Clear. N/A 77% 29.99 "Hg 10 mi
8:55 pm 63 °F Clear. N/A 73% 29.98 "Hg 10 mi
8:35 pm 63 °F Clear. N/A 77% 29.97 "Hg 10 mi
8:15 pm 64 °F Sunny. N/A 68% 29.98 "Hg 10 mi
7:55 pm 64 °F Sunny. N/A 73% 29.97 "Hg 10 mi
7:35 pm 64 °F Sunny. N/A 68% 29.98 "Hg 10 mi
7:15 pm 66 °F Sunny. N/A 64% 29.97 "Hg 10 mi
6:35 pm 68 °F Sunny. N/A 60% 29.97 "Hg 10 mi
6:15 pm 68 °F Sunny. N/A 56% 29.97 "Hg 10 mi
5:55 pm 68 °F Sunny. N/A 56% 29.97 "Hg 10 mi
5:35 pm 68 °F Sunny. N/A 56% 29.97 "Hg 10 mi
5:15 pm 68 °F Sunny. N/A 56% 29.97 "Hg 10 mi
4:55 pm 68 °F Sunny. N/A 56% 29.97 "Hg 10 mi
4:35 pm 68 °F Sunny. N/A 53% 29.98 "Hg 10 mi
4:15 pm 68 °F Sunny. N/A 53% 29.98 "Hg 10 mi
3:35 pm 68 °F Sunny. N/A 53% 30.00 "Hg 10 mi
3:15 pm 68 °F Sunny. N/A 53% 30.00 "Hg 10 mi
2:55 pm 70 °F Scattered clouds. N/A 53% 30.01 "Hg 10 mi
2:35 pm 70 °F Scattered clouds. N/A 53% 30.02 "Hg 10 mi
2:15 pm 68 °F Sunny. N/A 53% 30.02 "Hg 10 mi
1:35 pm 68 °F Sunny. N/A 49% 30.04 "Hg 10 mi
1:15 pm 66 °F Sunny. N/A 56% 30.05 "Hg 10 mi
12:55 pm 64 °F Scattered clouds. N/A 60% 30.06 "Hg 10 mi
12:35 pm 64 °F Scattered clouds. N/A 60% 30.07 "Hg 10 mi
11:55 am 64 °F Scattered clouds. N/A 64% 30.09 "Hg 10 mi
11:35 am 63 °F Scattered clouds. N/A 68% 30.09 "Hg 10 mi
10:55 am 63 °F Sunny. N/A 68% 30.09 "Hg 10 mi
10:35 am 61 °F Sunny. N/A 72% 30.09 "Hg 10 mi
10:15 am 59 °F Sunny. N/A 77% 30.09 "Hg 10 mi
9:35 am 55 °F Sunny. N/A 82% 30.10 "Hg 10 mi
9:15 am 55 °F Sunny. N/A 88% 30.09 "Hg 10 mi
8:55 am 54 °F Sunny. N/A 88% 30.09 "Hg 10 mi
8:35 am 54 °F Sunny. N/A 88% 30.09 "Hg 10 mi
7:55 am 52 °F Sunny. N/A 94% 30.07 "Hg 10 mi
7:35 am 52 °F Sunny. N/A 94% 30.05 "Hg 10 mi
6:55 am 50 °F Sunny. N/A 94% 30.03 "Hg 10 mi
6:15 am 50 °F Clear. N/A 100% 30.01 "Hg 10 mi
5:55 am 50 °F Clear. N/A 94% 30.01 "Hg 10 mi
5:35 am 52 °F Clear. N/A 94% 30.01 "Hg 10 mi
4:55 am 52 °F Clear. N/A 94% 29.99 "Hg 10 mi
4:35 am 52 °F Clear. N/A 94% 29.99 "Hg 10 mi
4:15 am 54 °F Clear. N/A 88% 29.98 "Hg 10 mi
3:55 am 54 °F Clear. N/A 88% 29.99 "Hg 10 mi
3:35 am 54 °F Clear. N/A 94% 29.99 "Hg 10 mi
2:55 am 54 °F Clear. N/A 94% 29.99 "Hg 10 mi
2:35 am 54 °F Clear. N/A 94% 29.99 "Hg 10 mi
2:15 am 54 °F Clear. N/A 94% 29.99 "Hg 10 mi
1:55 am 54 °F Clear. N/A 94% 29.99 "Hg 10 mi
1:35 am 54 °F Clear. N/A 94% 30.00 "Hg 10 mi
12:55 am 54 °F Clear. N/A 94% 30.00 "Hg 10 mi
12:35 am 55 °F Clear. N/A 88% 29.99 "Hg 10 mi
12:15 am 55 °F Clear. N/A 94% 29.99 "Hg 10 mi
Weather by CustomWeather, © 2026

See weather overview